createdAt,value
2023-04-16T00:00:20.335Z,4.88
2023-04-16T00:01:24.947Z,5.01
2023-04-16T00:02:28.195Z,5.03
2023-04-16T00:03:30.180Z,5.01
2023-04-16T00:04:34.930Z,5.01
2023-04-16T00:05:37.035Z,5.08
2023-04-16T00:06:41.392Z,5.09
2023-04-16T00:07:43.449Z,5.13
2023-04-16T00:08:45.226Z,5.14
2023-04-16T00:09:49.182Z,5.00
2023-04-16T00:10:52.826Z,5.14
2023-04-16T00:11:54.635Z,5.12
2023-04-16T00:12:56.393Z,5.07
2023-04-16T00:14:00.450Z,4.98
2023-04-16T00:15:02.158Z,5.12
2023-04-16T00:16:03.836Z,5.06
2023-04-16T00:17:05.850Z,5.15
2023-04-16T00:18:07.651Z,5.19
2023-04-16T00:19:09.964Z,5.06
2023-04-16T00:20:12.010Z,5.14
2023-04-16T00:21:13.702Z,5.20
2023-04-16T00:22:17.651Z,5.19
2023-04-16T00:23:19.885Z,5.08
2023-04-16T00:24:21.533Z,5.17
2023-04-16T00:25:23.421Z,5.20
2023-04-16T00:26:25.385Z,5.22
2023-04-16T00:27:27.530Z,5.18
2023-04-16T00:28:29.142Z,5.07
2023-04-16T00:29:33.762Z,5.15
2023-04-16T00:30:37.930Z,5.16
2023-04-16T00:31:39.842Z,5.19
2023-04-16T00:32:41.596Z,5.19
2023-04-16T00:33:43.317Z,4.86
2023-04-16T00:34:45.037Z,5.10
2023-04-16T00:35:47.300Z,5.03
2023-04-16T00:36:49.205Z,5.16
2023-04-16T00:37:50.951Z,5.07
2023-04-16T00:38:53.509Z,5.21
2023-04-16T00:39:55.248Z,5.22
2023-04-16T00:41:01.979Z,5.25
2023-04-16T00:42:03.835Z,5.27
2023-04-16T00:43:05.834Z,5.26
2023-04-16T00:44:07.549Z,5.24
2023-04-16T00:45:10.319Z,5.25
2023-04-16T00:46:15.988Z,5.23
2023-04-16T00:47:17.792Z,5.23
2023-04-16T00:48:20.576Z,5.10
2023-04-16T00:49:22.744Z,5.21
2023-04-16T00:50:27.119Z,5.22
2023-04-16T00:51:28.993Z,5.23
2023-04-16T00:52:32.739Z,5.24
2023-04-16T00:53:35.630Z,5.22
2023-04-16T00:54:37.722Z,5.20
2023-04-16T00:55:40.054Z,5.21
2023-04-16T00:56:42.909Z,5.24
2023-04-16T00:57:45.948Z,5.25
2023-04-16T00:58:50.869Z,5.29
2023-04-16T00:59:52.838Z,5.28
2023-04-16T01:00:54.500Z,5.26
2023-04-16T01:01:56.192Z,5.08
2023-04-16T01:03:00.395Z,5.14
2023-04-16T01:04:07.300Z,5.21
2023-04-16T01:05:09.417Z,5.21
2023-04-16T01:06:11.616Z,5.22
2023-04-16T01:07:13.418Z,5.19
2023-04-16T01:08:18.199Z,5.17
2023-04-16T01:09:20.037Z,5.15
2023-04-16T01:10:21.568Z,4.99
2023-04-16T01:11:23.275Z,5.10
2023-04-16T01:12:25.023Z,5.10
2023-04-16T01:13:27.710Z,5.15
2023-04-16T01:14:29.657Z,5.14
2023-04-16T01:15:31.551Z,5.04
2023-04-16T01:16:33.202Z,4.84
2023-04-16T01:17:37.301Z,4.95
2023-04-16T01:18:42.148Z,4.98
2023-04-16T01:19:44.024Z,4.98
2023-04-16T01:20:46.185Z,4.77
2023-04-16T01:21:48.597Z,4.89
2023-04-16T01:22:50.379Z,4.90
2023-04-16T01:23:52.304Z,4.90
2023-04-16T01:24:53.820Z,4.77
2023-04-16T01:25:55.858Z,4.80
2023-04-16T01:27:00.973Z,4.82
2023-04-16T01:28:02.966Z,4.76
2023-04-16T01:29:04.527Z,4.65
2023-04-16T01:30:08.440Z,4.84
2023-04-16T01:31:20.723Z,4.90
2023-04-16T01:32:32.666Z,4.87
2023-04-16T01:33:34.435Z,4.93
2023-04-16T01:34:36.194Z,4.81
2023-04-16T01:35:38.580Z,4.94
2023-04-16T01:36:45.117Z,4.96
2023-04-16T01:37:50.386Z,4.95
2023-04-16T01:38:52.353Z,4.97
2023-04-16T01:39:54.106Z,4.98
2023-04-16T01:40:57.794Z,4.95
2023-04-16T01:41:59.647Z,4.94
2023-04-16T01:43:03.976Z,4.95
2023-04-16T01:44:05.766Z,4.91
2023-04-16T01:45:08.206Z,4.91
2023-04-16T01:46:18.028Z,4.92
2023-04-16T01:47:19.814Z,4.90
2023-04-16T01:48:21.508Z,4.78
2023-04-16T01:49:23.430Z,4.81
2023-04-16T01:50:25.135Z,4.83
2023-04-16T01:51:27.458Z,4.58
2023-04-16T01:52:29.234Z,4.76
2023-04-16T01:53:31.781Z,4.81
2023-04-16T01:54:33.476Z,4.68
2023-04-16T01:55:35.259Z,4.82
2023-04-16T01:56:37.028Z,4.85
2023-04-16T01:57:39.006Z,4.90
2023-04-16T01:58:42.990Z,4.92
2023-04-16T01:59:44.694Z,4.81
2023-04-16T02:00:48.658Z,4.89
2023-04-16T02:01:50.513Z,4.92
2023-04-16T02:02:52.340Z,4.91
2023-04-16T02:04:00.883Z,4.91
2023-04-16T02:05:03.151Z,4.94
2023-04-16T02:06:05.437Z,4.98
2023-04-16T02:07:09.978Z,4.98
2023-04-16T02:08:11.758Z,4.96
2023-04-16T02:09:13.464Z,5.00
2023-04-16T02:10:15.161Z,4.84
2023-04-16T02:11:17.099Z,4.97
2023-04-16T02:12:18.645Z,4.84
2023-04-16T02:13:23.319Z,4.99
2023-04-16T02:14:25.708Z,5.04
2023-04-16T02:15:27.477Z,5.05
2023-04-16T02:16:29.574Z,5.11
2023-04-16T02:17:38.864Z,5.09
2023-04-16T02:18:47.371Z,5.07
2023-04-16T02:19:50.701Z,5.11
2023-04-16T02:20:55.513Z,5.13
2023-04-16T02:21:57.213Z,5.13
2023-04-16T02:22:58.943Z,5.01
2023-04-16T02:24:01.450Z,5.11
2023-04-16T02:25:06.049Z,5.12
2023-04-16T02:26:07.896Z,5.06
2023-04-16T02:27:09.686Z,4.93
2023-04-16T02:28:13.482Z,4.92
2023-04-16T02:29:17.537Z,4.97
2023-04-16T02:30:25.600Z,5.00
2023-04-16T02:31:28.709Z,5.04
2023-04-16T02:32:31.798Z,5.05
2023-04-16T02:33:33.882Z,5.12
2023-04-16T02:34:40.277Z,5.14
2023-04-16T02:35:42.139Z,5.17
2023-04-16T02:36:45.926Z,5.18
2023-04-16T02:37:47.435Z,5.03
2023-04-16T02:38:49.241Z,5.17
2023-04-16T02:39:51.473Z,5.05
2023-04-16T02:40:53.155Z,5.13
2023-04-16T02:41:54.762Z,5.00
2023-04-16T02:42:56.652Z,5.03
2023-04-16T02:43:58.393Z,5.04
2023-04-16T02:45:00.212Z,4.89
2023-04-16T02:46:02.127Z,4.96
2023-04-16T02:47:03.942Z,4.99
2023-04-16T02:48:07.253Z,4.88
2023-04-16T02:49:09.205Z,5.00
2023-04-16T02:50:14.262Z,5.01
2023-04-16T02:51:18.306Z,4.95
2023-04-16T02:52:19.908Z,4.90
2023-04-16T02:53:21.817Z,4.76
2023-04-16T02:54:27.714Z,4.86
2023-04-16T02:55:29.571Z,4.88
2023-04-16T02:56:33.667Z,4.91
2023-04-16T02:57:38.044Z,4.94
2023-04-16T02:58:39.895Z,4.97
2023-04-16T02:59:41.506Z,4.86
2023-04-16T03:00:43.181Z,4.98
2023-04-16T03:01:44.906Z,4.88
2023-04-16T03:02:49.142Z,5.00
2023-04-16T03:03:51.053Z,5.03
2023-04-16T03:04:56.805Z,5.08
2023-04-16T03:05:58.481Z,5.09
2023-04-16T03:06:59.989Z,4.97
2023-04-16T03:08:01.780Z,5.11
2023-04-16T03:09:03.568Z,5.00
2023-04-16T03:10:06.789Z,5.14
2023-04-16T03:11:08.662Z,5.18
2023-04-16T03:12:12.789Z,5.19
2023-04-16T03:13:15.760Z,5.20
2023-04-16T03:14:19.542Z,5.19
2023-04-16T03:15:21.131Z,5.04
2023-04-16T03:16:22.872Z,5.14
2023-04-16T03:17:24.478Z,5.06
2023-04-16T03:18:26.161Z,5.18
2023-04-16T03:19:27.786Z,5.05
2023-04-16T03:20:29.564Z,5.17
2023-04-16T03:21:31.764Z,5.06
2023-04-16T03:22:33.698Z,5.07
2023-04-16T03:23:36.385Z,5.17
2023-04-16T03:24:41.510Z,5.24
2023-04-16T03:25:46.680Z,5.19
2023-04-16T03:26:49.465Z,5.20
2023-04-16T03:27:51.424Z,5.17
2023-04-16T03:28:55.656Z,5.16
2023-04-16T03:29:57.434Z,5.17
2023-04-16T03:30:59.566Z,5.17
2023-04-16T03:32:01.429Z,5.14
2023-04-16T03:33:03.163Z,5.17
2023-04-16T03:34:04.794Z,5.05
2023-04-16T03:35:07.948Z,5.18
2023-04-16T03:36:12.472Z,5.21
2023-04-16T03:37:14.200Z,5.21
2023-04-16T03:38:15.927Z,5.09
2023-04-16T03:39:17.744Z,5.20
2023-04-16T03:40:19.460Z,5.21
2023-04-16T03:41:21.153Z,5.08
2023-04-16T03:42:23.028Z,5.17
2023-04-16T03:43:27.129Z,5.23
2023-04-16T03:44:29.505Z,5.21
2023-04-16T03:45:31.990Z,5.20
2023-04-16T03:46:33.695Z,5.21
2023-04-16T03:47:35.360Z,5.10
2023-04-16T03:48:38.534Z,5.17
2023-04-16T03:49:40.438Z,5.15
2023-04-16T03:50:46.591Z,5.17
2023-04-16T03:51:49.371Z,5.20
2023-04-16T03:52:51.017Z,5.06
2023-04-16T03:53:53.817Z,5.18
2023-04-16T03:54:57.875Z,5.17
2023-04-16T03:56:02.207Z,5.18
2023-04-16T03:57:04.232Z,5.14
2023-04-16T03:58:06.040Z,4.99
2023-04-16T03:59:08.973Z,4.99
2023-04-16T04:00:11.502Z,4.98
2023-04-16T04:01:42.547Z,4.90
2023-04-16T04:02:45.481Z,4.91
2023-04-16T04:03:55.459Z,4.95
2023-04-16T04:04:57.250Z,4.98
2023-04-16T04:05:58.899Z,4.87
2023-04-16T04:07:04.022Z,4.97
2023-04-16T04:08:09.309Z,5.01
2023-04-16T04:09:11.751Z,5.01
2023-04-16T04:10:13.565Z,5.05
2023-04-16T04:11:16.709Z,5.08
2023-04-16T04:12:18.880Z,5.12
2023-04-16T04:13:21.517Z,5.13
2023-04-16T04:14:24.456Z,5.15
2023-04-16T04:15:26.281Z,5.16
2023-04-16T04:16:29.501Z,5.18
2023-04-16T04:17:34.372Z,5.19
2023-04-16T04:18:36.918Z,5.19
2023-04-16T04:19:54.270Z,5.14
2023-04-16T04:21:09.084Z,5.11
2023-04-16T04:22:11.079Z,5.18
2023-04-16T04:23:13.252Z,5.17
2023-04-16T04:24:15.760Z,5.12
2023-04-16T04:25:17.859Z,5.09
2023-04-16T04:26:19.630Z,5.00
2023-04-16T04:27:21.365Z,5.00
2023-04-16T04:28:23.035Z,5.06
2023-04-16T04:29:24.702Z,4.87
2023-04-16T04:31:36.385Z,4.92
2023-04-16T04:32:38.130Z,4.91
2023-04-16T04:33:39.969Z,4.78
2023-04-16T04:34:44.174Z,4.95
2023-04-16T04:35:46.102Z,5.00
2023-04-16T04:36:51.992Z,5.04
2023-04-16T04:37:54.104Z,5.06
2023-04-16T04:38:56.272Z,5.07
2023-04-16T04:40:00.487Z,5.09
2023-04-16T04:41:02.405Z,5.09
2023-04-16T04:42:09.236Z,5.06
2023-04-16T04:43:10.973Z,5.08
2023-04-16T04:44:17.467Z,5.11
2023-04-16T04:45:19.254Z,5.05
2023-04-16T04:46:23.305Z,5.10
2023-04-16T04:47:25.016Z,5.12
2023-04-16T04:48:28.294Z,5.12
2023-04-16T04:49:30.981Z,5.10
2023-04-16T04:50:32.805Z,5.12
2023-04-16T04:51:34.560Z,5.14
2023-04-16T04:52:36.763Z,5.16
2023-04-16T04:53:38.503Z,5.12
2023-04-16T04:54:41.834Z,5.13
2023-04-16T04:55:43.535Z,5.13
2023-04-16T04:56:47.932Z,4.97
2023-04-16T04:57:50.225Z,5.10
2023-04-16T04:58:52.227Z,5.16
2023-04-16T04:59:55.016Z,5.14
2023-04-16T05:00:56.923Z,5.18
2023-04-16T05:01:59.446Z,5.13
2023-04-16T05:03:07.123Z,5.08
2023-04-16T05:04:08.934Z,5.07
2023-04-16T05:05:10.765Z,4.86
2023-04-16T05:06:12.540Z,4.91
2023-04-16T05:07:14.122Z,4.79
2023-04-16T05:08:15.748Z,4.84
2023-04-16T05:09:17.515Z,4.88
2023-04-16T05:10:19.540Z,4.79
2023-04-16T05:11:21.419Z,4.90
2023-04-16T05:12:23.177Z,4.97
2023-04-16T05:13:24.833Z,4.99
2023-04-16T05:14:26.490Z,4.86
2023-04-16T05:15:28.196Z,4.99
2023-04-16T05:16:29.816Z,4.88
2023-04-16T05:17:31.618Z,5.00
2023-04-16T05:18:35.675Z,4.89
2023-04-16T05:19:37.407Z,5.01
2023-04-16T05:20:43.629Z,4.92
2023-04-16T05:21:45.256Z,5.03
2023-04-16T05:22:46.959Z,4.93
2023-04-16T05:23:48.567Z,5.02
2023-04-16T05:24:50.287Z,5.03
2023-04-16T05:25:52.054Z,5.07
2023-04-16T05:26:53.914Z,5.05
2023-04-16T05:27:55.568Z,5.08
2023-04-16T05:28:57.219Z,4.94
2023-04-16T05:29:58.897Z,5.06
2023-04-16T05:31:00.844Z,5.07
2023-04-16T05:32:02.812Z,5.10
2023-04-16T05:33:04.399Z,4.96
2023-04-16T05:34:06.138Z,5.07
2023-04-16T05:35:08.033Z,4.94
2023-04-16T05:36:12.721Z,5.05
2023-04-16T05:37:14.449Z,5.06
2023-04-16T05:38:16.033Z,4.95
2023-04-16T05:39:21.189Z,5.05
2023-04-16T05:40:22.820Z,5.09
2023-04-16T05:41:24.622Z,5.12
2023-04-16T05:42:26.148Z,5.00
2023-04-16T05:43:30.088Z,5.09
2023-04-16T05:44:32.174Z,5.09
2023-04-16T05:45:40.984Z,5.08
2023-04-16T05:46:42.885Z,5.11
2023-04-16T05:47:46.962Z,4.98
2023-04-16T05:48:51.408Z,5.09
2023-04-16T05:49:53.125Z,5.12
2023-04-16T05:50:54.726Z,4.97
2023-04-16T05:51:56.432Z,5.08
2023-04-16T05:52:58.075Z,4.99
2023-04-16T05:53:59.764Z,5.13
2023-04-16T05:55:01.800Z,5.14
2023-04-16T05:56:03.755Z,5.14
2023-04-16T05:57:05.375Z,5.00
2023-04-16T05:58:07.109Z,5.08
2023-04-16T05:59:09.021Z,4.97
2023-04-16T06:00:11.340Z,5.06
2023-04-16T06:01:15.814Z,5.08
2023-04-16T06:02:17.979Z,5.08
2023-04-16T06:03:19.750Z,5.08
2023-04-16T06:04:21.459Z,4.92
2023-04-16T06:05:23.308Z,5.02
2023-04-16T06:06:25.011Z,4.94
2023-04-16T06:07:26.719Z,5.06
2023-04-16T06:08:28.592Z,5.09
2023-04-16T06:09:32.652Z,4.94
2023-04-16T06:10:34.369Z,5.03
2023-04-16T06:11:36.559Z,4.91
2023-04-16T06:12:38.298Z,5.03
2023-04-16T06:13:39.957Z,4.91
2023-04-16T06:14:44.181Z,5.03
2023-04-16T06:15:46.006Z,5.03
2023-04-16T06:16:47.747Z,5.01
2023-04-16T06:17:50.626Z,4.98
2023-04-16T06:18:54.728Z,5.03
2023-04-16T06:19:56.428Z,5.01
2023-04-16T06:21:01.040Z,4.88
2023-04-16T06:22:02.989Z,5.01
2023-04-16T06:23:04.713Z,5.06
2023-04-16T06:24:06.461Z,4.86
2023-04-16T06:25:08.681Z,4.96
2023-04-16T06:26:11.472Z,5.02
2023-04-16T06:27:13.134Z,4.99
2023-04-16T06:28:14.863Z,4.88
2023-04-16T06:29:16.573Z,5.03
2023-04-16T06:30:19.856Z,4.95
2023-04-16T06:31:21.710Z,5.10
2023-04-16T06:32:23.480Z,5.15
2023-04-16T06:33:25.223Z,5.04
2023-04-16T06:34:29.795Z,5.17
2023-04-16T06:35:33.800Z,5.21
2023-04-16T06:36:37.531Z,5.24
2023-04-16T06:37:41.471Z,5.29
2023-04-16T06:38:45.358Z,5.29
2023-04-16T06:39:47.119Z,5.29
2023-04-16T06:40:49.745Z,5.34
2023-04-16T06:41:51.445Z,5.29
2023-04-16T06:42:53.470Z,5.24
2023-04-16T06:43:55.057Z,5.36
2023-04-16T06:44:56.758Z,5.40
2023-04-16T06:46:00.837Z,5.29
2023-04-16T06:47:02.545Z,5.38
2023-04-16T06:48:05.066Z,5.28
2023-04-16T06:49:07.408Z,5.41
2023-04-16T06:50:09.491Z,5.42
2023-04-16T06:51:11.711Z,5.43
2023-04-16T06:52:16.007Z,5.46
2023-04-16T06:53:17.712Z,5.49
2023-04-16T06:54:21.729Z,5.49
2023-04-16T06:55:25.673Z,5.34
2023-04-16T06:56:32.152Z,5.44
2023-04-16T06:57:37.497Z,5.48
2023-04-16T06:58:39.471Z,5.51
2023-04-16T06:59:43.678Z,5.53
2023-04-16T07:00:45.515Z,5.56
2023-04-16T07:01:47.311Z,5.55
2023-04-16T07:02:49.084Z,5.43
2023-04-16T07:03:56.181Z,5.52
2023-04-16T07:04:58.055Z,5.55
2023-04-16T07:05:59.911Z,5.57
2023-04-16T07:07:01.427Z,5.38
2023-04-16T07:08:03.124Z,5.48
2023-04-16T07:09:04.789Z,5.38
2023-04-16T07:10:06.955Z,5.52
2023-04-16T07:11:08.651Z,5.54
2023-04-16T07:12:13.423Z,5.39
2023-04-16T07:13:18.574Z,5.51
2023-04-16T07:14:20.349Z,5.57
2023-04-16T07:15:24.627Z,5.64
2023-04-16T07:16:28.496Z,5.49
2023-04-16T07:17:30.284Z,5.59
2023-04-16T07:18:32.009Z,5.46
2023-04-16T07:19:37.066Z,5.53
2023-04-16T07:20:38.861Z,5.59
2023-04-16T07:21:43.762Z,5.60
2023-04-16T07:22:47.916Z,5.65
2023-04-16T07:23:49.632Z,5.67
2023-04-16T07:24:51.115Z,5.54
2023-04-16T07:25:52.784Z,5.65
2023-04-16T07:26:54.403Z,5.55
2023-04-16T07:27:56.026Z,5.65
2023-04-16T07:28:57.835Z,5.55
2023-04-16T07:29:59.477Z,5.68
2023-04-16T07:31:03.073Z,5.58
2023-04-16T07:32:05.400Z,5.76
2023-04-16T07:33:09.562Z,5.80
2023-04-16T07:34:11.644Z,5.83
2023-04-16T07:35:13.298Z,5.86
2023-04-16T07:36:14.967Z,5.84
2023-04-16T07:37:16.570Z,5.85
2023-04-16T07:38:18.236Z,5.91
2023-04-16T07:39:19.887Z,5.76
2023-04-16T07:40:21.538Z,5.90
2023-04-16T07:41:23.206Z,5.74
2023-04-16T07:42:24.922Z,5.86
2023-04-16T07:43:26.444Z,5.76
2023-04-16T07:44:28.158Z,5.87
2023-04-16T07:45:29.726Z,5.78
2023-04-16T07:46:45.669Z,5.91
2023-04-16T07:47:48.448Z,5.93
2023-04-16T07:48:50.429Z,5.96
2023-04-16T07:49:52.444Z,5.79
2023-04-16T07:50:54.298Z,5.92
2023-04-16T07:51:56.105Z,5.92
2023-04-16T07:52:57.760Z,5.87
2023-04-16T07:53:59.509Z,5.99
2023-04-16T07:55:01.085Z,5.90
2023-04-16T07:56:02.737Z,5.97
2023-04-16T07:57:04.276Z,5.85
2023-04-16T07:58:07.820Z,5.98
2023-04-16T07:59:22.120Z,5.98
2023-04-16T08:00:26.388Z,6.02
2023-04-16T08:01:28.308Z,6.04
2023-04-16T08:02:32.903Z,6.08
2023-04-16T08:03:35.347Z,6.06
2023-04-16T08:04:37.664Z,6.08
2023-04-16T08:05:39.444Z,6.11
2023-04-16T08:06:41.348Z,6.03
2023-04-16T08:07:43.089Z,6.16
2023-04-16T08:08:44.602Z,6.08
2023-04-16T08:09:53.433Z,6.21
2023-04-16T08:10:56.007Z,6.32
2023-04-16T08:11:57.896Z,6.35
2023-04-16T08:13:05.096Z,6.40
2023-04-16T08:14:06.769Z,6.46
2023-04-16T08:15:08.649Z,6.35
2023-04-16T08:16:12.881Z,6.48
2023-04-16T08:17:15.026Z,6.50
2023-04-16T08:18:16.870Z,6.54
2023-04-16T08:19:18.612Z,6.60
2023-04-16T08:20:20.201Z,6.46
2023-04-16T08:21:22.111Z,6.58
2023-04-16T08:22:23.805Z,6.56
2023-04-16T08:23:27.521Z,6.50
2023-04-16T08:24:29.154Z,6.55
2023-04-16T08:25:30.892Z,6.60
2023-04-16T08:26:32.409Z,6.49
2023-04-16T08:27:34.129Z,6.63
2023-04-16T08:28:36.211Z,6.65
2023-04-16T08:29:37.926Z,6.66
2023-04-16T08:30:39.836Z,6.66
2023-04-16T08:31:41.744Z,6.57
2023-04-16T08:32:43.819Z,6.69
2023-04-16T08:33:48.018Z,6.75
2023-04-16T08:34:49.590Z,6.64
2023-04-16T08:35:51.273Z,6.75
2023-04-16T08:36:52.985Z,6.66
2023-04-16T08:37:54.669Z,6.78
2023-04-16T08:38:56.247Z,6.65
2023-04-16T08:39:57.915Z,6.74
2023-04-16T08:41:03.874Z,6.71
2023-04-16T08:42:11.173Z,6.77
2023-04-16T08:43:14.786Z,6.76
2023-04-16T08:44:31.722Z,6.81
2023-04-16T08:45:35.016Z,6.82
2023-04-16T08:46:37.941Z,6.84
2023-04-16T08:47:46.169Z,6.77
2023-04-16T08:48:50.225Z,6.75
2023-04-16T08:49:56.812Z,6.80
2023-04-16T08:51:01.411Z,6.82
2023-04-16T08:52:06.616Z,6.76
2023-04-16T08:53:17.062Z,6.77
2023-04-16T08:54:57.699Z,6.65
2023-04-16T08:56:03.732Z,6.70
2023-04-16T08:57:06.958Z,6.75
2023-04-16T08:58:14.350Z,6.79
2023-04-16T08:59:19.177Z,6.81
2023-04-16T09:00:21.550Z,6.84
2023-04-16T09:01:26.634Z,6.88
2023-04-16T09:02:29.115Z,6.89
2023-04-16T09:03:36.509Z,6.88
2023-04-16T09:04:39.812Z,6.87
2023-04-16T09:05:43.876Z,6.90
2023-04-16T09:06:47.311Z,6.88
2023-04-16T09:07:49.126Z,6.88
2023-04-16T09:08:53.013Z,6.78
2023-04-16T09:09:55.761Z,6.75
2023-04-16T09:11:00.518Z,6.71
2023-04-16T09:12:02.513Z,6.68
2023-04-16T09:13:04.327Z,6.67
2023-04-16T09:14:10.526Z,6.72
2023-04-16T09:15:14.098Z,6.77
2023-04-16T09:16:16.007Z,6.75
2023-04-16T09:17:19.485Z,6.79
2023-04-16T09:18:21.476Z,6.84
2023-04-16T09:19:23.619Z,6.88
2023-04-16T09:20:27.691Z,6.88
2023-04-16T09:21:32.342Z,6.90
2023-04-16T09:22:36.924Z,6.95
2023-04-16T09:23:38.880Z,6.94
2023-04-16T09:24:41.909Z,6.95
2023-04-16T09:25:43.910Z,6.96
2023-04-16T09:26:48.862Z,6.92
2023-04-16T09:27:51.187Z,6.94
2023-04-16T09:28:52.827Z,6.93
2023-04-16T09:29:54.560Z,6.74
2023-04-16T09:31:14.174Z,6.79
2023-04-16T09:32:15.933Z,6.90
2023-04-16T09:33:24.350Z,6.78
2023-04-16T09:34:27.046Z,6.88
2023-04-16T09:35:47.683Z,6.83
2023-04-16T09:36:49.395Z,6.84
2023-04-16T09:37:58.030Z,6.85
2023-04-16T09:39:00.369Z,6.93
2023-04-16T09:40:04.081Z,6.92
2023-04-16T09:41:08.505Z,6.95
2023-04-16T09:42:11.435Z,6.97
2023-04-16T09:43:13.109Z,7.03
2023-04-16T09:44:14.792Z,7.07
2023-04-16T09:45:16.288Z,6.96
2023-04-16T09:46:18.502Z,7.07
2023-04-16T09:47:21.519Z,7.13
2023-04-16T09:48:31.059Z,7.13
2023-04-16T09:49:41.132Z,7.19
2023-04-16T09:50:51.570Z,7.22
2023-04-16T09:51:56.230Z,7.28
2023-04-16T09:53:03.594Z,7.34
2023-04-16T09:54:08.433Z,7.39
2023-04-16T09:55:10.229Z,7.45
2023-04-16T09:56:12.105Z,7.33
2023-04-16T09:57:14.878Z,7.45
2023-04-16T09:58:19.329Z,7.55
2023-04-16T09:59:22.098Z,7.59
2023-04-16T10:00:25.952Z,7.61
2023-04-16T10:01:27.724Z,7.55
2023-04-16T10:02:30.509Z,7.55
2023-04-16T10:03:36.204Z,7.59
2023-04-16T10:04:48.156Z,7.57
2023-04-16T10:05:53.641Z,7.60
2023-04-16T10:07:05.932Z,7.63
2023-04-16T10:08:14.280Z,7.73
2023-04-16T10:09:16.192Z,7.80
2023-04-16T10:10:17.938Z,7.81
2023-04-16T10:11:20.066Z,7.71
2023-04-16T10:12:21.916Z,7.88
2023-04-16T10:13:27.906Z,7.96
2023-04-16T10:14:29.777Z,7.96
2023-04-16T10:15:35.944Z,7.95
2023-04-16T10:16:41.197Z,8.02
2023-04-16T10:17:46.069Z,8.06
2023-04-16T10:18:49.750Z,8.13
2023-04-16T10:19:51.476Z,8.26
2023-04-16T10:20:53.099Z,8.14
2023-04-16T10:21:57.814Z,8.32
2023-04-16T10:23:06.151Z,8.38
2023-04-16T10:24:08.954Z,8.46
2023-04-16T10:25:13.416Z,8.52
2023-04-16T10:26:15.991Z,8.57
2023-04-16T10:27:19.374Z,8.55
2023-04-16T10:28:25.296Z,8.59
2023-04-16T10:29:28.777Z,8.63
2023-04-16T10:30:31.170Z,8.64
2023-04-16T10:31:33.342Z,8.59
2023-04-16T10:32:36.464Z,8.52
2023-04-16T10:33:43.559Z,8.56
2023-04-16T10:34:45.528Z,8.46
2023-04-16T10:35:57.882Z,8.43
2023-04-16T10:37:08.616Z,8.42
2023-04-16T10:38:25.177Z,8.29
2023-04-16T10:39:29.138Z,8.35
2023-04-16T10:40:33.200Z,8.18
2023-04-16T10:41:34.778Z,8.14
2023-04-16T10:42:38.269Z,8.16
2023-04-16T10:43:47.901Z,8.12
2023-04-16T10:44:49.609Z,8.11
2023-04-16T10:45:51.144Z,7.95
2023-04-16T10:46:54.856Z,8.05
2023-04-16T10:47:57.818Z,8.10
2023-04-16T10:49:03.901Z,8.15
2023-04-16T10:50:16.359Z,8.14
2023-04-16T10:51:28.078Z,8.15
2023-04-16T10:52:29.742Z,8.17
2023-04-16T10:53:31.401Z,8.05
2023-04-16T10:54:35.908Z,8.16
2023-04-16T10:55:40.577Z,8.19
2023-04-16T10:56:44.864Z,8.18
2023-04-16T10:57:49.859Z,8.26
2023-04-16T10:58:54.409Z,8.30
2023-04-16T10:59:56.195Z,8.36
2023-04-16T11:01:01.305Z,8.12
2023-04-16T11:02:13.740Z,8.23
2023-04-16T11:03:17.244Z,8.26
2023-04-16T11:04:22.466Z,8.29
2023-04-16T11:05:24.592Z,8.35
2023-04-16T11:06:27.966Z,8.33
2023-04-16T11:07:39.324Z,8.29
2023-04-16T11:08:53.995Z,8.31
2023-04-16T11:10:03.125Z,8.28
2023-04-16T11:11:07.762Z,8.22
2023-04-16T11:12:12.598Z,8.26
2023-04-16T11:13:15.724Z,8.26
2023-04-16T11:14:17.504Z,8.28
2023-04-16T11:15:23.422Z,8.11
2023-04-16T11:16:25.978Z,8.24
2023-04-16T11:17:44.613Z,8.09
2023-04-16T11:18:51.530Z,8.14
2023-04-16T11:19:53.804Z,8.14
2023-04-16T11:20:55.572Z,7.97
2023-04-16T11:21:59.779Z,8.09
2023-04-16T11:23:01.507Z,8.11
2023-04-16T11:24:03.144Z,8.07
2023-04-16T11:25:04.845Z,7.85
2023-04-16T11:26:20.480Z,7.91
2023-04-16T11:27:25.520Z,7.95
2023-04-16T11:28:39.491Z,7.74
2023-04-16T11:29:41.584Z,7.82
2023-04-16T11:30:46.614Z,7.81
2023-04-16T11:31:54.748Z,7.82
2023-04-16T11:32:56.694Z,7.85
2023-04-16T11:34:01.070Z,7.87
2023-04-16T11:35:05.776Z,7.88
2023-04-16T11:36:07.577Z,7.87
2023-04-16T11:37:09.052Z,7.59
2023-04-16T11:38:10.752Z,7.74
2023-04-16T11:39:12.526Z,7.61
2023-04-16T11:40:14.746Z,7.75
2023-04-16T11:41:21.912Z,7.81
2023-04-16T11:42:23.913Z,7.85
2023-04-16T11:43:26.795Z,7.84
2023-04-16T11:44:29.281Z,7.85
2023-04-16T11:45:31.118Z,7.86
2023-04-16T11:46:39.779Z,7.69
2023-04-16T11:47:55.434Z,7.80
2023-04-16T11:48:57.274Z,7.81
2023-04-16T11:50:22.316Z,7.74
2023-04-16T11:51:24.142Z,7.77
2023-04-16T11:52:33.557Z,7.71
2023-04-16T11:53:36.569Z,7.68
2023-04-16T11:54:38.580Z,7.69
2023-04-16T11:55:45.825Z,7.67
2023-04-16T11:56:48.841Z,7.68
2023-04-16T11:57:51.794Z,7.65
2023-04-16T11:59:10.844Z,7.54
2023-04-16T12:00:14.225Z,7.59
2023-04-16T12:01:20.935Z,7.58
2023-04-16T12:02:57.982Z,7.50
2023-04-16T12:04:04.702Z,7.62
2023-04-16T12:05:26.924Z,7.59
2023-04-16T12:06:28.666Z,7.61
2023-04-16T12:07:30.567Z,7.58
2023-04-16T12:08:32.546Z,7.63
2023-04-16T12:09:39.588Z,7.42
2023-04-16T12:10:55.493Z,7.52
2023-04-16T12:11:57.189Z,7.60
2023-04-16T12:13:16.113Z,7.59
2023-04-16T12:14:17.801Z,7.63
2023-04-16T12:15:19.408Z,7.45
2023-04-16T12:16:26.236Z,7.62
2023-04-16T12:17:30.152Z,7.67
2023-04-16T12:18:31.891Z,7.70
2023-04-16T12:19:48.539Z,7.63
2023-04-16T12:20:51.583Z,7.69
2023-04-16T12:21:54.879Z,7.73
2023-04-16T12:22:59.784Z,7.75
2023-04-16T12:24:01.346Z,7.77
2023-04-16T12:25:04.114Z,7.74
2023-04-16T12:26:12.195Z,7.74
2023-04-16T12:27:13.877Z,7.79
2023-04-16T12:28:16.535Z,7.56
2023-04-16T12:29:20.482Z,7.54
2023-04-16T12:30:24.269Z,7.69
2023-04-16T12:31:38.155Z,7.67
2023-04-16T12:32:43.338Z,7.69
2023-04-16T12:34:04.201Z,7.66
2023-04-16T12:35:06.225Z,7.72
2023-04-16T12:36:18.597Z,7.75
2023-04-16T12:37:22.353Z,7.79
2023-04-16T12:38:25.530Z,7.83
2023-04-16T12:39:27.583Z,7.82
2023-04-16T12:40:29.272Z,7.77
2023-04-16T12:41:31.108Z,7.57
2023-04-16T12:42:36.097Z,7.71
2023-04-16T12:43:37.773Z,7.73
2023-04-16T12:44:41.970Z,7.66
2023-04-16T12:45:43.539Z,7.42
2023-04-16T12:46:45.277Z,7.59
2023-04-16T12:47:47.570Z,7.61
2023-04-16T12:48:50.393Z,7.66
2023-04-16T12:49:52.057Z,7.67
2023-04-16T12:50:54.032Z,7.55
2023-04-16T12:51:55.613Z,7.68
2023-04-16T12:53:00.170Z,7.69
2023-04-16T12:54:03.899Z,7.67
2023-04-16T12:55:05.908Z,7.68
2023-04-16T12:56:07.559Z,7.63
2023-04-16T12:57:09.134Z,7.63
2023-04-16T12:58:12.479Z,7.64
2023-04-16T12:59:14.317Z,7.65
2023-04-16T13:00:17.250Z,7.68
2023-04-16T13:01:19.833Z,7.66
2023-04-16T13:02:21.636Z,7.66
2023-04-16T13:03:23.675Z,7.64
2023-04-16T13:04:25.988Z,7.65
2023-04-16T13:05:27.823Z,7.65
2023-04-16T13:06:33.689Z,7.46
2023-04-16T13:07:35.392Z,7.55
2023-04-16T13:08:37.484Z,7.44
2023-04-16T13:09:39.949Z,7.54
2023-04-16T13:10:41.700Z,7.55
2023-04-16T13:11:43.378Z,7.59
2023-04-16T13:12:47.299Z,7.57
2023-04-16T13:13:51.701Z,7.58
2023-04-16T13:14:53.765Z,7.54
2023-04-16T13:15:55.705Z,7.50
2023-04-16T13:16:57.360Z,7.49
2023-04-16T13:17:59.016Z,7.43
2023-04-16T13:19:00.676Z,7.20
2023-04-16T13:20:02.361Z,7.30
2023-04-16T13:21:04.220Z,7.24
2023-04-16T13:22:05.879Z,7.17
2023-04-16T13:23:07.497Z,7.28
2023-04-16T13:24:09.156Z,7.31
2023-04-16T13:25:10.696Z,7.19
2023-04-16T13:26:14.864Z,7.31
2023-04-16T13:27:16.859Z,7.33
2023-04-16T13:28:18.570Z,7.32
2023-04-16T13:29:20.442Z,7.28
2023-04-16T13:30:25.489Z,7.32
2023-04-16T13:31:30.391Z,7.31
2023-04-16T13:32:34.735Z,7.30
2023-04-16T13:33:38.506Z,7.28
2023-04-16T13:34:40.407Z,7.32
2023-04-16T13:35:42.227Z,7.22
2023-04-16T13:36:43.950Z,7.33
2023-04-16T13:37:47.827Z,7.36
2023-04-16T13:38:49.436Z,7.39
2023-04-16T13:39:51.148Z,7.33
2023-04-16T13:40:52.752Z,7.17
2023-04-16T13:41:56.689Z,7.27
2023-04-16T13:42:58.310Z,7.31
2023-04-16T13:43:59.875Z,7.21
2023-04-16T13:45:01.614Z,7.32
2023-04-16T13:46:05.896Z,7.38
2023-04-16T13:47:08.068Z,7.39
2023-04-16T13:48:11.992Z,7.39
2023-04-16T13:49:13.890Z,7.27
2023-04-16T13:50:16.130Z,7.36
2023-04-16T13:51:17.768Z,7.38
2023-04-16T13:52:20.795Z,7.36
2023-04-16T13:53:24.836Z,7.32
2023-04-16T13:54:28.666Z,7.37
2023-04-16T13:55:32.713Z,7.37
2023-04-16T13:56:34.793Z,7.38
2023-04-16T13:57:36.487Z,7.34
2023-04-16T13:58:38.112Z,7.20
2023-04-16T13:59:39.726Z,7.30
2023-04-16T14:00:42.743Z,7.34
2023-04-16T14:01:44.452Z,7.41
2023-04-16T14:02:49.609Z,7.29
2023-04-16T14:03:51.497Z,7.43
2023-04-16T14:04:53.905Z,7.30
2023-04-16T14:05:58.035Z,7.43
2023-04-16T14:06:59.694Z,7.47